Canalou, Missouri
Current Conditions -  °F | °C
As of 11:53 AM on Sunday 21 Dec 2014 (Local Time) from KCGI Reporting Station
Overcast Overcast  
Wind Chill: 39°   Ceiling: 4900
Heat Index: 43°   Visibility: 10mi
Dew Point: 30°   Wind: 7mph
Humidity: 60%   Direction: 130°SE
Pressure: 30.18"   Gusts: NA
Location:  36.76°N, 89.69°W
Report Text: KCGI 211753Z 13006KT 10SM OVC049 06/M01 A3018 RMK AO2 SLP220 T00611011 10061 21022 58023
Loading
Personal Weather Stations






























Interactive Weather Map New forecast layout! Learn more

10-Day Weather Forecast

Advertisements
Track Severe Weather on mobile